sensor_id;sensor_type;location;lat;lon;timestamp;P1;P2;P0
75946;PMS5003;64628;50.104;14.614;2022-11-04T00:01:23;69;49;
75946;PMS5003;64628;50.104;14.614;2022-11-04T00:03:48;49;44;
75946;PMS5003;64628;50.104;14.614;2022-11-04T00:06:14;57;50;
75946;PMS5003;64628;50.104;14.614;2022-11-04T00:08:39;62;55;
75946;PMS5003;64628;50.104;14.614;2022-11-04T00:11:05;62;49;
75946;PMS5003;64628;50.104;14.614;2022-11-04T00:13:30;55;48;
75946;PMS5003;64628;50.104;14.614;2022-11-04T00:15:59;58;49;
75946;PMS5003;64628;50.104;14.614;2022-11-04T00:18:21;55;51;
75946;PMS5003;64628;50.104;14.614;2022-11-04T00:20:47;55;51;
75946;PMS5003;64628;50.104;14.614;2022-11-04T00:23:12;64;60;
75946;PMS5003;64628;50.104;14.614;2022-11-04T00:25:37;76;65;
75946;PMS5003;64628;50.104;14.614;2022-11-04T00:28:04;66;62;
75946;PMS5003;64628;50.104;14.614;2022-11-04T00:30:29;76;58;
75946;PMS5003;64628;50.104;14.614;2022-11-04T00:32:54;69;59;
75946;PMS5003;64628;50.104;14.614;2022-11-04T00:35:20;72;59;
75946;PMS5003;64628;50.104;14.614;2022-11-04T00:37:45;70;60;
75946;PMS5003;64628;50.104;14.614;2022-11-04T00:40:11;78;64;
75946;PMS5003;64628;50.104;14.614;2022-11-04T00:42:36;77;64;
75946;PMS5003;64628;50.104;14.614;2022-11-04T00:45:02;73;60;
75946;PMS5003;64628;50.104;14.614;2022-11-04T00:47:27;79;62;
75946;PMS5003;64628;50.104;14.614;2022-11-04T00:49:52;73;61;
75946;PMS5003;64628;50.104;14.614;2022-11-04T00:52:17;62;53;
75946;PMS5003;64628;50.104;14.614;2022-11-04T00:54:43;68;63;
75946;PMS5003;64628;50.104;14.614;2022-11-04T00:57:08;64;54;
75946;PMS5003;64628;50.104;14.614;2022-11-04T00:59:33;70;60;
75946;PMS5003;64628;50.104;14.614;2022-11-04T01:01:58;62;58;
75946;PMS5003;64628;50.104;14.614;2022-11-04T01:04:24;63;52;
75946;PMS5003;64628;50.104;14.614;2022-11-04T01:06:49;73;59;
75946;PMS5003;64628;50.104;14.614;2022-11-04T01:09:15;73;62;
75946;PMS5003;64628;50.104;14.614;2022-11-04T01:11:40;76;64;
75946;PMS5003;64628;50.104;14.614;2022-11-04T01:14:06;61;59;
75946;PMS5003;64628;50.104;14.614;2022-11-04T01:16:31;69;63;
75946;PMS5003;64628;50.104;14.614;2022-11-04T01:18:57;73;62;
75946;PMS5003;64628;50.104;14.614;2022-11-04T01:21:22;76;64;
75946;PMS5003;64628;50.104;14.614;2022-11-04T01:23:47;66;59;
75946;PMS5003;64628;50.104;14.614;2022-11-04T01:26:14;80;68;
75946;PMS5003;64628;50.104;14.614;2022-11-04T01:28:38;77;64;
75946;PMS5003;64628;50.104;14.614;2022-11-04T01:31:04;67;58;
75946;PMS5003;64628;50.104;14.614;2022-11-04T01:33:29;72;64;
75946;PMS5003;64628;50.104;14.614;2022-11-04T01:35:58;75;61;
75946;PMS5003;64628;50.104;14.614;2022-11-04T01:38:20;69;63;
75946;PMS5003;64628;50.104;14.614;2022-11-04T01:40:46;73;52;
75946;PMS5003;64628;50.104;14.614;2022-11-04T01:43:11;65;59;
75946;PMS5003;64628;50.104;14.614;2022-11-04T01:45:37;69;61;
75946;PMS5003;64628;50.104;14.614;2022-11-04T01:48:03;72;61;
75946;PMS5003;64628;50.104;14.614;2022-11-04T01:50:28;64;56;
75946;PMS5003;64628;50.104;14.614;2022-11-04T01:52:54;70;54;
75946;PMS5003;64628;50.104;14.614;2022-11-04T01:55:20;53;45;
75946;PMS5003;64628;50.104;14.614;2022-11-04T01:57:45;53;47;
75946;PMS5003;64628;50.104;14.614;2022-11-04T02:00:10;55;49;
75946;PMS5003;64628;50.104;14.614;2022-11-04T02:02:36;68;61;
75946;PMS5003;64628;50.104;14.614;2022-11-04T02:05:01;71;60;
75946;PMS5003;64628;50.104;14.614;2022-11-04T02:07:26;59;50;
75946;PMS5003;64628;50.104;14.614;2022-11-04T02:09:51;62;50;
75946;PMS5003;64628;50.104;14.614;2022-11-04T02:12:16;56;52;
75946;PMS5003;64628;50.104;14.614;2022-11-04T02:14:42;61;49;
75946;PMS5003;64628;50.104;14.614;2022-11-04T02:17:11;60;53;
75946;PMS5003;64628;50.104;14.614;2022-11-04T02:19:42;60;55;
75946;PMS5003;64628;50.104;14.614;2022-11-04T02:22:04;59;53;
75946;PMS5003;64628;50.104;14.614;2022-11-04T02:26:58;67;55;
75946;PMS5003;64628;50.104;14.614;2022-11-04T02:29:15;54;50;
75946;PMS5003;64628;50.104;14.614;2022-11-04T02:31:40;52;45;
75946;PMS5003;64628;50.104;14.614;2022-11-04T02:34:07;57;50;
75946;PMS5003;64628;50.104;14.614;2022-11-04T02:36:32;55;50;
75946;PMS5003;64628;50.104;14.614;2022-11-04T02:38:56;61;52;
75946;PMS5003;64628;50.104;14.614;2022-11-04T02:41:25;66;54;
75946;PMS5003;64628;50.104;14.614;2022-11-04T02:43:50;72;62;
75946;PMS5003;64628;50.104;14.614;2022-11-04T02:46:14;60;53;
75946;PMS5003;64628;50.104;14.614;2022-11-04T02:48:39;54;48;
75946;PMS5003;64628;50.104;14.614;2022-11-04T02:51:05;63;55;
75946;PMS5003;64628;50.104;14.614;2022-11-04T02:53:30;50;43;
75946;PMS5003;64628;50.104;14.614;2022-11-04T02:55:56;60;53;
75946;PMS5003;64628;50.104;14.614;2022-11-04T02:58:22;58;54;
75946;PMS5003;64628;50.104;14.614;2022-11-04T03:00:46;61;51;
75946;PMS5003;64628;50.104;14.614;2022-11-04T03:03:13;57;47;
75946;PMS5003;64628;50.104;14.614;2022-11-04T03:05:38;60;51;
75946;PMS5003;64628;50.104;14.614;2022-11-04T03:08:03;63;52;
75946;PMS5003;64628;50.104;14.614;2022-11-04T03:10:29;54;50;
75946;PMS5003;64628;50.104;14.614;2022-11-04T03:12:53;52;44;
75946;PMS5003;64628;50.104;14.614;2022-11-04T03:15:19;60;52;
75946;PMS5003;64628;50.104;14.614;2022-11-04T03:17:46;59;49;
75946;PMS5003;64628;50.104;14.614;2022-11-04T03:20:11;59;53;
75946;PMS5003;64628;50.104;14.614;2022-11-04T03:22:36;55;48;
75946;PMS5003;64628;50.104;14.614;2022-11-04T03:25:02;54;46;
75946;PMS5003;64628;50.104;14.614;2022-11-04T03:27:29;64;52;
75946;PMS5003;64628;50.104;14.614;2022-11-04T03:29:55;49;48;
75946;PMS5003;64628;50.104;14.614;2022-11-04T03:32:20;54;48;
75946;PMS5003;64628;50.104;14.614;2022-11-04T03:34:43;69;58;
75946;PMS5003;64628;50.104;14.614;2022-11-04T03:37:08;55;50;
75946;PMS5003;64628;50.104;14.614;2022-11-04T03:39:34;57;46;
75946;PMS5003;64628;50.104;14.614;2022-11-04T03:42:01;46;40;
75946;PMS5003;64628;50.104;14.614;2022-11-04T03:44:24;47;43;
75946;PMS5003;64628;50.104;14.614;2022-11-04T03:46:50;56;51;
75946;PMS5003;64628;50.104;14.614;2022-11-04T03:49:15;57;50;
75946;PMS5003;64628;50.104;14.614;2022-11-04T03:51:41;64;53;
75946;PMS5003;64628;50.104;14.614;2022-11-04T03:54:06;63;52;
75946;PMS5003;64628;50.104;14.614;2022-11-04T03:56:36;57;46;
75946;PMS5003;64628;50.104;14.614;2022-11-04T03:59:00;52;48;
75946;PMS5003;64628;50.104;14.614;2022-11-04T04:01:24;58;53;
75946;PMS5003;64628;50.104;14.614;2022-11-04T04:03:49;54;48;
75946;PMS5003;64628;50.104;14.614;2022-11-04T04:06:14;49;39;
75946;PMS5003;64628;50.104;14.614;2022-11-04T04:08:40;54;48;
75946;PMS5003;64628;50.104;14.614;2022-11-04T04:11:05;50;41;
75946;PMS5003;64628;50.104;14.614;2022-11-04T04:13:32;50;46;
75946;PMS5003;64628;50.104;14.614;2022-11-04T04:15:56;54;43;
75946;PMS5003;64628;50.104;14.614;2022-11-04T04:18:22;56;48;
75946;PMS5003;64628;50.104;14.614;2022-11-04T04:20:46;53;48;
75946;PMS5003;64628;50.104;14.614;2022-11-04T04:23:12;47;44;
75946;PMS5003;64628;50.104;14.614;2022-11-04T04:25:37;47;42;
75946;PMS5003;64628;50.104;14.614;2022-11-04T04:28:02;65;60;
75946;PMS5003;64628;50.104;14.614;2022-11-04T04:30:27;67;58;
75946;PMS5003;64628;50.104;14.614;2022-11-04T04:32:54;60;55;
75946;PMS5003;64628;50.104;14.614;2022-11-04T04:35:19;43;37;
75946;PMS5003;64628;50.104;14.614;2022-11-04T04:37:44;54;46;
75946;PMS5003;64628;50.104;14.614;2022-11-04T04:40:11;56;49;
75946;PMS5003;64628;50.104;14.614;2022-11-04T04:42:35;60;48;
75946;PMS5003;64628;50.104;14.614;2022-11-04T04:45:01;49;47;
75946;PMS5003;64628;50.104;14.614;2022-11-04T04:47:28;47;41;
75946;PMS5003;64628;50.104;14.614;2022-11-04T04:49:52;45;39;
75946;PMS5003;64628;50.104;14.614;2022-11-04T04:52:17;57;53;
75946;PMS5003;64628;50.104;14.614;2022-11-04T04:54:43;58;54;
75946;PMS5003;64628;50.104;14.614;2022-11-04T04:57:08;51;45;
75946;PMS5003;64628;50.104;14.614;2022-11-04T04:59:33;49;43;
75946;PMS5003;64628;50.104;14.614;2022-11-04T05:01:59;55;49;
75946;PMS5003;64628;50.104;14.614;2022-11-04T05:04:24;55;53;
75946;PMS5003;64628;50.104;14.614;2022-11-04T05:06:49;54;44;
75946;PMS5003;64628;50.104;14.614;2022-11-04T05:09:15;58;48;
75946;PMS5003;64628;50.104;14.614;2022-11-04T05:11:40;62;52;
75946;PMS5003;64628;50.104;14.614;2022-11-04T05:14:05;50;43;
75946;PMS5003;64628;50.104;14.614;2022-11-04T05:16:30;53;47;
75946;PMS5003;64628;50.104;14.614;2022-11-04T05:18:56;44;43;
75946;PMS5003;64628;50.104;14.614;2022-11-04T05:21:21;60;52;
75946;PMS5003;64628;50.104;14.614;2022-11-04T05:23:46;48;44;
75946;PMS5003;64628;50.104;14.614;2022-11-04T05:26:12;49;42;
75946;PMS5003;64628;50.104;14.614;2022-11-04T05:28:37;52;43;
75946;PMS5003;64628;50.104;14.614;2022-11-04T05:31:03;49;47;
75946;PMS5003;64628;50.104;14.614;2022-11-04T05:33:28;57;42;
75946;PMS5003;64628;50.104;14.614;2022-11-04T05:35:54;60;47;
75946;PMS5003;64628;50.104;14.614;2022-11-04T05:38:20;62;49;
75946;PMS5003;64628;50.104;14.614;2022-11-04T05:40:45;53;48;
75946;PMS5003;64628;50.104;14.614;2022-11-04T05:43:10;55;49;
75946;PMS5003;64628;50.104;14.614;2022-11-04T05:45:36;53;47;
75946;PMS5003;64628;50.104;14.614;2022-11-04T05:48:02;54;44;
75946;PMS5003;64628;50.104;14.614;2022-11-04T05:50:27;62;51;
75946;PMS5003;64628;50.104;14.614;2022-11-04T05:52:51;64;54;
75946;PMS5003;64628;50.104;14.614;2022-11-04T05:55:17;60;53;
75946;PMS5003;64628;50.104;14.614;2022-11-04T05:57:42;62;51;
75946;PMS5003;64628;50.104;14.614;2022-11-04T06:00:08;53;48;
75946;PMS5003;64628;50.104;14.614;2022-11-04T06:02:33;59;51;
75946;PMS5003;64628;50.104;14.614;2022-11-04T06:04:58;59;49;
75946;PMS5003;64628;50.104;14.614;2022-11-04T06:07:24;64;52;
75946;PMS5003;64628;50.104;14.614;2022-11-04T06:09:49;68;62;
75946;PMS5003;64628;50.104;14.614;2022-11-04T06:12:15;56;50;
75946;PMS5003;64628;50.104;14.614;2022-11-04T06:14:40;66;58;
75946;PMS5003;64628;50.104;14.614;2022-11-04T06:17:05;66;59;
75946;PMS5003;64628;50.104;14.614;2022-11-04T06:19:30;60;58;
75946;PMS5003;64628;50.104;14.614;2022-11-04T06:21:56;65;60;
75946;PMS5003;64628;50.104;14.614;2022-11-04T06:24:22;68;58;
75946;PMS5003;64628;50.104;14.614;2022-11-04T06:26:47;54;53;
75946;PMS5003;64628;50.104;14.614;2022-11-04T06:29:12;68;63;
75946;PMS5003;64628;50.104;14.614;2022-11-04T06:31:37;76;63;
75946;PMS5003;64628;50.104;14.614;2022-11-04T06:34:02;68;63;
75946;PMS5003;64628;50.104;14.614;2022-11-04T06:36:28;66;58;
75946;PMS5003;64628;50.104;14.614;2022-11-04T06:38:53;72;62;
75946;PMS5003;64628;50.104;14.614;2022-11-04T06:41:19;59;58;
75946;PMS5003;64628;50.104;14.614;2022-11-04T06:43:44;61;52;
75946;PMS5003;64628;50.104;14.614;2022-11-04T06:48:35;58;54;
75946;PMS5003;64628;50.104;14.614;2022-11-04T06:51:01;66;60;
75946;PMS5003;64628;50.104;14.614;2022-11-04T06:53:26;63;55;
75946;PMS5003;64628;50.104;14.614;2022-11-04T06:55:52;70;63;
75946;PMS5003;64628;50.104;14.614;2022-11-04T06:58:17;69;62;
75946;PMS5003;64628;50.104;14.614;2022-11-04T07:00:42;63;57;
75946;PMS5003;64628;50.104;14.614;2022-11-04T07:03:08;68;59;
75946;PMS5003;64628;50.104;14.614;2022-11-04T07:05:33;62;57;
75946;PMS5003;64628;50.104;14.614;2022-11-04T07:07:59;75;63;
75946;PMS5003;64628;50.104;14.614;2022-11-04T07:10:25;67;58;
75946;PMS5003;64628;50.104;14.614;2022-11-04T07:12:50;73;55;
75946;PMS5003;64628;50.104;14.614;2022-11-04T07:15:16;71;64;
75946;PMS5003;64628;50.104;14.614;2022-11-04T07:17:41;71;64;
75946;PMS5003;64628;50.104;14.614;2022-11-04T07:20:07;63;61;
75946;PMS5003;64628;50.104;14.614;2022-11-04T07:22:32;66;63;
75946;PMS5003;64628;50.104;14.614;2022-11-04T07:24:58;71;65;
75946;PMS5003;64628;50.104;14.614;2022-11-04T07:27:23;77;64;
75946;PMS5003;64628;50.104;14.614;2022-11-04T07:29:49;67;61;
75946;PMS5003;64628;50.104;14.614;2022-11-04T07:32:15;70;63;
75946;PMS5003;64628;50.104;14.614;2022-11-04T07:34:41;61;55;
75946;PMS5003;64628;50.104;14.614;2022-11-04T07:37:06;75;66;
75946;PMS5003;64628;50.104;14.614;2022-11-04T07:39:31;64;61;
75946;PMS5003;64628;50.104;14.614;2022-11-04T07:41:57;68;66;
75946;PMS5003;64628;50.104;14.614;2022-11-04T07:44:22;68;63;
75946;PMS5003;64628;50.104;14.614;2022-11-04T07:46:48;77;63;
75946;PMS5003;64628;50.104;14.614;2022-11-04T07:49:13;59;55;
75946;PMS5003;64628;50.104;14.614;2022-11-04T07:51:38;72;64;
75946;PMS5003;64628;50.104;14.614;2022-11-04T07:54:03;67;60;
75946;PMS5003;64628;50.104;14.614;2022-11-04T07:56:29;75;59;
75946;PMS5003;64628;50.104;14.614;2022-11-04T07:58:54;70;62;
75946;PMS5003;64628;50.104;14.614;2022-11-04T08:01:21;69;58;
75946;PMS5003;64628;50.104;14.614;2022-11-04T08:03:45;68;61;
75946;PMS5003;64628;50.104;14.614;2022-11-04T08:06:14;71;61;
75946;PMS5003;64628;50.104;14.614;2022-11-04T08:08:37;67;58;
75946;PMS5003;64628;50.104;14.614;2022-11-04T08:11:03;69;65;
75946;PMS5003;64628;50.104;14.614;2022-11-04T08:13:28;64;60;
75946;PMS5003;64628;50.104;14.614;2022-11-04T08:15:54;73;61;
75946;PMS5003;64628;50.104;14.614;2022-11-04T08:18:19;75;63;
75946;PMS5003;64628;50.104;14.614;2022-11-04T08:20:46;61;57;
75946;PMS5003;64628;50.104;14.614;2022-11-04T08:23:11;69;55;
75946;PMS5003;64628;50.104;14.614;2022-11-04T08:25:36;73;67;
75946;PMS5003;64628;50.104;14.614;2022-11-04T08:28:02;73;60;
75946;PMS5003;64628;50.104;14.614;2022-11-04T08:30:27;60;56;
75946;PMS5003;64628;50.104;14.614;2022-11-04T08:32:52;77;62;
75946;PMS5003;64628;50.104;14.614;2022-11-04T08:35:18;72;62;
75946;PMS5003;64628;50.104;14.614;2022-11-04T08:37:43;73;68;
75946;PMS5003;64628;50.104;14.614;2022-11-04T08:40:09;95;80;
75946;PMS5003;64628;50.104;14.614;2022-11-04T08:42:34;73;66;
75946;PMS5003;64628;50.104;14.614;2022-11-04T08:44:59;83;79;
75946;PMS5003;64628;50.104;14.614;2022-11-04T08:47:25;78;73;
75946;PMS5003;64628;50.104;14.614;2022-11-04T08:49:50;77;73;
75946;PMS5003;64628;50.104;14.614;2022-11-04T08:52:16;72;65;
75946;PMS5003;64628;50.104;14.614;2022-11-04T08:54:41;67;56;
75946;PMS5003;64628;50.104;14.614;2022-11-04T08:57:07;73;65;
75946;PMS5003;64628;50.104;14.614;2022-11-04T08:59:32;72;67;
75946;PMS5003;64628;50.104;14.614;2022-11-04T09:01:57;78;68;
75946;PMS5003;64628;50.104;14.614;2022-11-04T09:04:23;64;56;
75946;PMS5003;64628;50.104;14.614;2022-11-04T09:06:48;72;63;
75946;PMS5003;64628;50.104;14.614;2022-11-04T09:09:14;74;66;
75946;PMS5003;64628;50.104;14.614;2022-11-04T09:11:39;75;67;
75946;PMS5003;64628;50.104;14.614;2022-11-04T09:14:04;71;58;
75946;PMS5003;64628;50.104;14.614;2022-11-04T09:16:30;72;66;
75946;PMS5003;64628;50.104;14.614;2022-11-04T09:18:55;66;59;
75946;PMS5003;64628;50.104;14.614;2022-11-04T09:21:20;74;65;
75946;PMS5003;64628;50.104;14.614;2022-11-04T09:23:46;71;58;
75946;PMS5003;64628;50.104;14.614;2022-11-04T09:26:13;78;70;
75946;PMS5003;64628;50.104;14.614;2022-11-04T09:28:37;86;76;
75946;PMS5003;64628;50.104;14.614;2022-11-04T09:31:03;78;68;
75946;PMS5003;64628;50.104;14.614;2022-11-04T09:33:28;76;63;
75946;PMS5003;64628;50.104;14.614;2022-11-04T09:35:54;73;65;
75946;PMS5003;64628;50.104;14.614;2022-11-04T09:38:19;83;73;
75946;PMS5003;64628;50.104;14.614;2022-11-04T09:40:45;76;68;
75946;PMS5003;64628;50.104;14.614;2022-11-04T09:43:13;84;72;
75946;PMS5003;64628;50.104;14.614;2022-11-04T09:45:38;80;70;
75946;PMS5003;64628;50.104;14.614;2022-11-04T09:48:02;78;69;
75946;PMS5003;64628;50.104;14.614;2022-11-04T09:50:27;69;59;
75946;PMS5003;64628;50.104;14.614;2022-11-04T09:52:54;80;71;
75946;PMS5003;64628;50.104;14.614;2022-11-04T09:55:19;76;70;
75946;PMS5003;64628;50.104;14.614;2022-11-04T09:57:42;80;69;
75946;PMS5003;64628;50.104;14.614;2022-11-04T10:00:09;74;64;
75946;PMS5003;64628;50.104;14.614;2022-11-04T10:02:39;82;67;
75946;PMS5003;64628;50.104;14.614;2022-11-04T10:05:02;64;62;
75946;PMS5003;64628;50.104;14.614;2022-11-04T10:07:29;80;70;
75946;PMS5003;64628;50.104;14.614;2022-11-04T10:09:53;79;70;
75946;PMS5003;64628;50.104;14.614;2022-11-04T10:12:18;72;61;
75946;PMS5003;64628;50.104;14.614;2022-11-04T10:14:50;75;62;
75946;PMS5003;64628;50.104;14.614;2022-11-04T10:17:09;63;59;
75946;PMS5003;64628;50.104;14.614;2022-11-04T10:19:37;74;68;
75946;PMS5003;64628;50.104;14.614;2022-11-04T10:22:03;89;71;
75946;PMS5003;64628;50.104;14.614;2022-11-04T10:24:23;68;58;
75946;PMS5003;64628;50.104;14.614;2022-11-04T10:26:49;73;63;
75946;PMS5003;64628;50.104;14.614;2022-11-04T10:29:14;90;70;
75946;PMS5003;64628;50.104;14.614;2022-11-04T10:31:39;81;65;
75946;PMS5003;64628;50.104;14.614;2022-11-04T10:34:04;83;71;
75946;PMS5003;64628;50.104;14.614;2022-11-04T10:36:29;67;57;
75946;PMS5003;64628;50.104;14.614;2022-11-04T10:38:55;73;60;
75946;PMS5003;64628;50.104;14.614;2022-11-04T10:41:22;73;64;
75946;PMS5003;64628;50.104;14.614;2022-11-04T10:43:45;67;62;
75946;PMS5003;64628;50.104;14.614;2022-11-04T10:46:15;67;50;
75946;PMS5003;64628;50.104;14.614;2022-11-04T10:48:38;74;62;
75946;PMS5003;64628;50.104;14.614;2022-11-04T10:51:01;62;57;
75946;PMS5003;64628;50.104;14.614;2022-11-04T10:53:27;60;50;
75946;PMS5003;64628;50.104;14.614;2022-11-04T10:55:55;49;42;
75946;PMS5003;64628;50.104;14.614;2022-11-04T10:58:20;55;50;
75946;PMS5003;64628;50.104;14.614;2022-11-04T11:00:43;51;46;
75946;PMS5003;64628;50.104;14.614;2022-11-04T11:05:34;48;45;
75946;PMS5003;64628;50.104;14.614;2022-11-04T11:07:59;64;54;
75946;PMS5003;64628;50.104;14.614;2022-11-04T11:10:25;57;46;
75946;PMS5003;64628;50.104;14.614;2022-11-04T11:12:51;58;48;
75946;PMS5003;64628;50.104;14.614;2022-11-04T11:15:18;49;42;
75946;PMS5003;64628;50.104;14.614;2022-11-04T11:17:42;53;44;
75946;PMS5003;64628;50.104;14.614;2022-11-04T11:22:34;55;48;
75946;PMS5003;64628;50.104;14.614;2022-11-04T11:27:23;46;41;
75946;PMS5003;64628;50.104;14.614;2022-11-04T11:29:48;56;44;
75946;PMS5003;64628;50.104;14.614;2022-11-04T11:32:18;57;48;
75946;PMS5003;64628;50.104;14.614;2022-11-04T11:34:40;41;38;
75946;PMS5003;64628;50.104;14.614;2022-11-04T11:37:05;47;38;
75946;PMS5003;64628;50.104;14.614;2022-11-04T11:39:31;41;36;
75946;PMS5003;64628;50.104;14.614;2022-11-04T11:41:57;47;41;
75946;PMS5003;64628;50.104;14.614;2022-11-04T11:44:24;47;45;
75946;PMS5003;64628;50.104;14.614;2022-11-04T11:46:49;51;47;
75946;PMS5003;64628;50.104;14.614;2022-11-04T11:51:38;49;46;
75946;PMS5003;64628;50.104;14.614;2022-11-04T11:56:29;56;47;
75946;PMS5003;64628;50.104;14.614;2022-11-04T11:58:56;47;44;
75946;PMS5003;64628;50.104;14.614;2022-11-04T12:01:21;42;39;
75946;PMS5003;64628;50.104;14.614;2022-11-04T12:03:45;44;41;
75946;PMS5003;64628;50.104;14.614;2022-11-04T12:06:16;51;48;
75946;PMS5003;64628;50.104;14.614;2022-11-04T12:08:41;39;38;
75946;PMS5003;64628;50.104;14.614;2022-11-04T12:11:02;36;31;
75946;PMS5003;64628;50.104;14.614;2022-11-04T12:13:27;52;46;
75946;PMS5003;64628;50.104;14.614;2022-11-04T12:16:06;64;54;
75946;PMS5003;64628;50.104;14.614;2022-11-04T12:20:45;48;44;
75946;PMS5003;64628;50.104;14.614;2022-11-04T12:23:09;54;48;
75946;PMS5003;64628;50.104;14.614;2022-11-04T12:25:34;46;42;
75946;PMS5003;64628;50.104;14.614;2022-11-04T12:27:59;37;36;
75946;PMS5003;64628;50.104;14.614;2022-11-04T12:30:23;45;36;
75946;PMS5003;64628;50.104;14.614;2022-11-04T12:32:55;47;38;
75946;PMS5003;64628;50.104;14.614;2022-11-04T12:35:19;46;40;
75946;PMS5003;64628;50.104;14.614;2022-11-04T12:37:40;39;30;
75946;PMS5003;64628;50.104;14.614;2022-11-04T12:40:09;42;37;
75946;PMS5003;64628;50.104;14.614;2022-11-04T12:42:33;38;30;
75946;PMS5003;64628;50.104;14.614;2022-11-04T12:44:59;45;41;
75946;PMS5003;64628;50.104;14.614;2022-11-04T12:47:23;42;40;
75946;PMS5003;64628;50.104;14.614;2022-11-04T12:49:51;40;37;
75946;PMS5003;64628;50.104;14.614;2022-11-04T12:52:15;46;38;
75946;PMS5003;64628;50.104;14.614;2022-11-04T12:54:42;45;44;
75946;PMS5003;64628;50.104;14.614;2022-11-04T12:57:07;49;41;
75946;PMS5003;64628;50.104;14.614;2022-11-04T12:59:32;55;47;
75946;PMS5003;64628;50.104;14.614;2022-11-04T13:01:55;49;46;
75946;PMS5003;64628;50.104;14.614;2022-11-04T13:04:20;46;39;
75946;PMS5003;64628;50.104;14.614;2022-11-04T13:06:45;55;46;
75946;PMS5003;64628;50.104;14.614;2022-11-04T13:09:11;51;48;
75946;PMS5003;64628;50.104;14.614;2022-11-04T13:11:36;55;47;
75946;PMS5003;64628;50.104;14.614;2022-11-04T13:14:02;53;47;
75946;PMS5003;64628;50.104;14.614;2022-11-04T13:16:27;60;53;
75946;PMS5003;64628;50.104;14.614;2022-11-04T13:18:53;58;48;
75946;PMS5003;64628;50.104;14.614;2022-11-04T13:21:19;47;44;
75946;PMS5003;64628;50.104;14.614;2022-11-04T13:23:44;57;51;
75946;PMS5003;64628;50.104;14.614;2022-11-04T13:26:10;54;49;
75946;PMS5003;64628;50.104;14.614;2022-11-04T13:28:34;53;44;
75946;PMS5003;64628;50.104;14.614;2022-11-04T13:31:01;59;53;
75946;PMS5003;64628;50.104;14.614;2022-11-04T13:33:28;47;45;
75946;PMS5003;64628;50.104;14.614;2022-11-04T13:35:52;51;49;
75946;PMS5003;64628;50.104;14.614;2022-11-04T13:38:16;52;46;
75946;PMS5003;64628;50.104;14.614;2022-11-04T13:40:43;45;41;
75946;PMS5003;64628;50.104;14.614;2022-11-04T13:43:12;47;40;
75946;PMS5003;64628;50.104;14.614;2022-11-04T13:45:31;44;40;
75946;PMS5003;64628;50.104;14.614;2022-11-04T13:47:57;47;40;
75946;PMS5003;64628;50.104;14.614;2022-11-04T13:50:26;47;40;
75946;PMS5003;64628;50.104;14.614;2022-11-04T13:52:47;48;44;
75946;PMS5003;64628;50.104;14.614;2022-11-04T13:55:16;38;32;
75946;PMS5003;64628;50.104;14.614;2022-11-04T14:00:06;44;35;
75946;PMS5003;64628;50.104;14.614;2022-11-04T14:04:55;39;33;
75946;PMS5003;64628;50.104;14.614;2022-11-04T14:07:23;42;34;
75946;PMS5003;64628;50.104;14.614;2022-11-04T14:09:50;41;33;
75946;PMS5003;64628;50.104;14.614;2022-11-04T14:12:22;53;42;
75946;PMS5003;64628;50.104;14.614;2022-11-04T14:14:36;35;30;
75946;PMS5003;64628;50.104;14.614;2022-11-04T14:17:02;42;37;
75946;PMS5003;64628;50.104;14.614;2022-11-04T14:24:17;35;33;
75946;PMS5003;64628;50.104;14.614;2022-11-04T14:26:43;32;28;
75946;PMS5003;64628;50.104;14.614;2022-11-04T14:29:13;27;25;
75946;PMS5003;64628;50.104;14.614;2022-11-04T14:31:34;34;28;
75946;PMS5003;64628;50.104;14.614;2022-11-04T14:33:59;36;32;
75946;PMS5003;64628;50.104;14.614;2022-11-04T14:36:27;24;24;
75946;PMS5003;64628;50.104;14.614;2022-11-04T14:38:51;28;25;
75946;PMS5003;64628;50.104;14.614;2022-11-04T14:41:19;28;24;
75946;PMS5003;64628;50.104;14.614;2022-11-04T14:43:42;30;24;
75946;PMS5003;64628;50.104;14.614;2022-11-04T14:46:06;24;21;
75946;PMS5003;64628;50.104;14.614;2022-11-04T14:48:32;18;16;
75946;PMS5003;64628;50.104;14.614;2022-11-04T14:50:57;17;16;
75946;PMS5003;64628;50.104;14.614;2022-11-04T14:53:24;13;11;
75946;PMS5003;64628;50.104;14.614;2022-11-04T14:55:50;14;13;
75946;PMS5003;64628;50.104;14.614;2022-11-04T15:00:57;19;17;
75946;PMS5003;64628;50.104;14.614;2022-11-04T15:03:05;25;21;
75946;PMS5003;64628;50.104;14.614;2022-11-04T15:05:28;26;22;
75946;PMS5003;64628;50.104;14.614;2022-11-04T15:07:54;33;29;
75946;PMS5003;64628;50.104;14.614;2022-11-04T15:10:21;21;20;
75946;PMS5003;64628;50.104;14.614;2022-11-04T15:17:37;31;29;
75946;PMS5003;64628;50.104;14.614;2022-11-04T15:20:02;27;26;
75946;PMS5003;64628;50.104;14.614;2022-11-04T15:22:27;36;30;
75946;PMS5003;64628;50.104;14.614;2022-11-04T15:24:52;51;42;
75946;PMS5003;64628;50.104;14.614;2022-11-04T15:27:18;39;35;
75946;PMS5003;64628;50.104;14.614;2022-11-04T15:34:40;36;33;
75946;PMS5003;64628;50.104;14.614;2022-11-04T15:37:01;35;31;
75946;PMS5003;64628;50.104;14.614;2022-11-04T15:39:25;35;35;
75946;PMS5003;64628;50.104;14.614;2022-11-04T15:41:56;39;36;
75946;PMS5003;64628;50.104;14.614;2022-11-04T15:44:18;33;27;
75946;PMS5003;64628;50.104;14.614;2022-11-04T15:46:46;31;28;
75946;PMS5003;64628;50.104;14.614;2022-11-04T15:51:34;25;23;
75946;PMS5003;64628;50.104;14.614;2022-11-04T15:53:58;24;20;
75946;PMS5003;64628;50.104;14.614;2022-11-04T15:56:30;28;26;
75946;PMS5003;64628;50.104;14.614;2022-11-04T15:58:49;26;23;
75946;PMS5003;64628;50.104;14.614;2022-11-04T16:01:19;23;21;
75946;PMS5003;64628;50.104;14.614;2022-11-04T16:03:40;27;21;
75946;PMS5003;64628;50.104;14.614;2022-11-04T16:06:07;37;35;
75946;PMS5003;64628;50.104;14.614;2022-11-04T16:08:31;16;15;
75946;PMS5003;64628;50.104;14.614;2022-11-04T16:13:22;26;25;
75946;PMS5003;64628;50.104;14.614;2022-11-04T16:15:48;35;31;
75946;PMS5003;64628;50.104;14.614;2022-11-04T16:20:38;43;35;
75946;PMS5003;64628;50.104;14.614;2022-11-04T16:23:03;29;27;
75946;PMS5003;64628;50.104;14.614;2022-11-04T16:25:29;39;33;
75946;PMS5003;64628;50.104;14.614;2022-11-04T16:27:54;20;18;
75946;PMS5003;64628;50.104;14.614;2022-11-04T16:30:19;41;40;
75946;PMS5003;64628;50.104;14.614;2022-11-04T16:32:44;37;33;
75946;PMS5003;64628;50.104;14.614;2022-11-04T16:35:16;19;18;
75946;PMS5003;64628;50.104;14.614;2022-11-04T16:37:36;23;22;